Bennetts Bay, Louisiana
Current Conditions -  °F | °C
As of 12:21 AM on Saturday 29 Nov 2014 (Local Time) from KAEX Reporting Station
Broken Clouds Broken Clouds  
Wind Chill: 51°   Ceiling: 1000
Heat Index: 51°   Visibility: 9mi
Dew Point: 49°   Wind: 7mph
Humidity: 92%   Direction: 160°SSE
Pressure: 30.15"   Gusts: NA
Location:  31.0356°N, 92.5053°W
Report Text: KAEX 290621Z 16006KT 9SM BKN010 11/09 A3015 RMK AO2 T01060094
Loading
Personal Weather Stations






























Interactive Weather Map New forecast layout! Learn more

10-Day Weather Forecast

Advertisements
Track Severe Weather on mobile